sensor_id;sensor_type;location;lat;lon;timestamp;pressure;altitude;pressure_sealevel;temperature;humidity
59274;BME280;45044;41.572;24.730;2023-02-20T00:00:32;91435.56;;;3.64;100.00
59274;BME280;45044;41.572;24.730;2023-02-20T00:02:59;91434.28;;;3.70;100.00
59274;BME280;45044;41.572;24.730;2023-02-20T00:05:26;91430.38;;;3.77;100.00
59274;BME280;45044;41.572;24.730;2023-02-20T00:07:52;91433.63;;;3.74;100.00
59274;BME280;45044;41.572;24.730;2023-02-20T00:10:19;91436.00;;;3.79;100.00
59274;BME280;45044;41.572;24.730;2023-02-20T00:12:46;91444.69;;;3.58;100.00
59274;BME280;45044;41.572;24.730;2023-02-20T00:15:14;91440.22;;;3.58;100.00
59274;BME280;45044;41.572;24.730;2023-02-20T00:17:42;91445.00;;;3.19;100.00
59274;BME280;45044;41.572;24.730;2023-02-20T00:20:10;91447.50;;;3.40;100.00
59274;BME280;45044;41.572;24.730;2023-02-20T00:22:37;91438.63;;;3.41;100.00
59274;BME280;45044;41.572;24.730;2023-02-20T00:25:03;91434.50;;;3.40;100.00
59274;BME280;45044;41.572;24.730;2023-02-20T00:27:31;91439.91;;;3.47;100.00
59274;BME280;45044;41.572;24.730;2023-02-20T00:29:58;91436.34;;;3.52;100.00
59274;BME280;45044;41.572;24.730;2023-02-20T00:32:25;91444.03;;;3.49;100.00
59274;BME280;45044;41.572;24.730;2023-02-20T00:34:51;91444.22;;;3.31;100.00
59274;BME280;45044;41.572;24.730;2023-02-20T00:37:18;91435.03;;;3.33;100.00
59274;BME280;45044;41.572;24.730;2023-02-20T00:39:45;91455.72;;;3.30;100.00
59274;BME280;45044;41.572;24.730;2023-02-20T00:42:12;91446.81;;;3.31;100.00
59274;BME280;45044;41.572;24.730;2023-02-20T00:44:38;91449.94;;;3.11;100.00
59274;BME280;45044;41.572;24.730;2023-02-20T00:47:05;91445.97;;;3.27;100.00
59274;BME280;45044;41.572;24.730;2023-02-20T00:49:32;91441.41;;;3.23;100.00
59274;BME280;45044;41.572;24.730;2023-02-20T00:51:58;91434.94;;;3.30;100.00
59274;BME280;45044;41.572;24.730;2023-02-20T00:54:25;91426.81;;;3.44;100.00
59274;BME280;45044;41.572;24.730;2023-02-20T00:56:52;91433.59;;;3.11;100.00
59274;BME280;45044;41.572;24.730;2023-02-20T00:59:20;91430.38;;;3.14;100.00
59274;BME280;45044;41.572;24.730;2023-02-20T01:01:46;91427.56;;;3.32;100.00
59274;BME280;45044;41.572;24.730;2023-02-20T01:04:13;91429.50;;;3.22;100.00
59274;BME280;45044;41.572;24.730;2023-02-20T01:06:40;91428.84;;;3.13;100.00
59274;BME280;45044;41.572;24.730;2023-02-20T01:09:06;91435.13;;;3.12;100.00
59274;BME280;45044;41.572;24.730;2023-02-20T01:11:33;91433.25;;;3.00;100.00
59274;BME280;45044;41.572;24.730;2023-02-20T01:14:00;91435.78;;;3.09;100.00
59274;BME280;45044;41.572;24.730;2023-02-20T01:16:26;91436.22;;;3.23;100.00
59274;BME280;45044;41.572;24.730;2023-02-20T01:18:53;91448.44;;;3.10;100.00
59274;BME280;45044;41.572;24.730;2023-02-20T01:21:20;91443.97;;;2.98;100.00
59274;BME280;45044;41.572;24.730;2023-02-20T01:23:46;91444.53;;;3.04;100.00
59274;BME280;45044;41.572;24.730;2023-02-20T01:26:13;91446.56;;;2.98;100.00
59274;BME280;45044;41.572;24.730;2023-02-20T01:28:44;91438.53;;;2.91;100.00
59274;BME280;45044;41.572;24.730;2023-02-20T01:31:11;91448.00;;;3.08;100.00
59274;BME280;45044;41.572;24.730;2023-02-20T01:33:42;91451.16;;;3.14;100.00
59274;BME280;45044;41.572;24.730;2023-02-20T01:36:10;91438.63;;;3.29;100.00
59274;BME280;45044;41.572;24.730;2023-02-20T01:38:39;91441.22;;;3.29;100.00
59274;BME280;45044;41.572;24.730;2023-02-20T01:41:10;91443.06;;;3.28;100.00
59274;BME280;45044;41.572;24.730;2023-02-20T01:43:37;91441.13;;;3.50;100.00
59274;BME280;45044;41.572;24.730;2023-02-20T01:48:49;91437.63;;;3.96;100.00
59274;BME280;45044;41.572;24.730;2023-02-20T01:51:16;91431.38;;;4.13;100.00
59274;BME280;45044;41.572;24.730;2023-02-20T01:53:43;91438.41;;;4.25;100.00
59274;BME280;45044;41.572;24.730;2023-02-20T01:56:11;91442.16;;;4.40;100.00
59274;BME280;45044;41.572;24.730;2023-02-20T01:58:46;91438.31;;;4.79;100.00
59274;BME280;45044;41.572;24.730;2023-02-20T02:01:15;91427.16;;;4.95;100.00
59274;BME280;45044;41.572;24.730;2023-02-20T02:03:45;91435.50;;;5.49;100.00
59274;BME280;45044;41.572;24.730;2023-02-20T02:06:14;91437.03;;;5.50;100.00
59274;BME280;45044;41.572;24.730;2023-02-20T02:08:42;91438.09;;;5.49;100.00
59274;BME280;45044;41.572;24.730;2023-02-20T02:11:16;91428.34;;;5.46;100.00
59274;BME280;45044;41.572;24.730;2023-02-20T02:13:44;91428.53;;;5.37;100.00
59274;BME280;45044;41.572;24.730;2023-02-20T02:44:18;91441.22;;;5.38;100.00
59274;BME280;45044;41.572;24.730;2023-02-20T02:46:57;91449.63;;;5.48;100.00
59274;BME280;45044;41.572;24.730;2023-02-20T02:49:56;91451.25;;;5.69;100.00
59274;BME280;45044;41.572;24.730;2023-02-20T02:52:25;91445.84;;;5.78;100.00
59274;BME280;45044;41.572;24.730;2023-02-20T02:55:25;91465.09;;;5.73;100.00
59274;BME280;45044;41.572;24.730;2023-02-20T02:57:54;91473.19;;;5.68;100.00
59274;BME280;45044;41.572;24.730;2023-02-20T03:00:25;91481.94;;;5.59;100.00
59274;BME280;45044;41.572;24.730;2023-02-20T03:03:15;91489.09;;;5.62;100.00
59274;BME280;45044;41.572;24.730;2023-02-20T03:05:48;91491.53;;;5.55;100.00
59274;BME280;45044;41.572;24.730;2023-02-20T03:08:29;91483.78;;;5.43;100.00
59274;BME280;45044;41.572;24.730;2023-02-20T03:11:19;91490.19;;;5.00;100.00
59274;BME280;45044;41.572;24.730;2023-02-20T03:13:52;91494.91;;;4.95;100.00
59274;BME280;45044;41.572;24.730;2023-02-20T03:16:53;91492.34;;;4.82;100.00
59274;BME280;45044;41.572;24.730;2023-02-20T03:19:43;91488.97;;;4.82;100.00
59274;BME280;45044;41.572;24.730;2023-02-20T03:22:18;91490.59;;;4.58;100.00
59274;BME280;45044;41.572;24.730;2023-02-20T03:24:49;91501.56;;;4.51;100.00
59274;BME280;45044;41.572;24.730;2023-02-20T03:29:56;91512.34;;;4.37;100.00
59274;BME280;45044;41.572;24.730;2023-02-20T03:32:26;91515.72;;;4.37;100.00
59274;BME280;45044;41.572;24.730;2023-02-20T03:35:14;91507.38;;;4.31;100.00
59274;BME280;45044;41.572;24.730;2023-02-20T03:38:03;91516.81;;;4.24;100.00
59274;BME280;45044;41.572;24.730;2023-02-20T03:40:50;91514.19;;;4.24;100.00
59274;BME280;45044;41.572;24.730;2023-02-20T03:43:37;91515.38;;;4.39;100.00
59274;BME280;45044;41.572;24.730;2023-02-20T03:46:11;91508.34;;;4.27;100.00
59274;BME280;45044;41.572;24.730;2023-02-20T03:48:49;91508.75;;;4.29;100.00
59274;BME280;45044;41.572;24.730;2023-02-20T03:51:18;91509.16;;;4.43;100.00
59274;BME280;45044;41.572;24.730;2023-02-20T03:54:04;91507.72;;;4.17;100.00
59274;BME280;45044;41.572;24.730;2023-02-20T03:56:39;91505.34;;;4.00;100.00
59274;BME280;45044;41.572;24.730;2023-02-20T03:59:20;91514.22;;;3.99;100.00
59274;BME280;45044;41.572;24.730;2023-02-20T04:01:54;91505.97;;;4.09;100.00
59274;BME280;45044;41.572;24.730;2023-02-20T04:04:28;91506.50;;;4.69;100.00
59274;BME280;45044;41.572;24.730;2023-02-20T04:06:58;91513.38;;;4.89;100.00
59274;BME280;45044;41.572;24.730;2023-02-20T04:09:29;91516.41;;;4.91;100.00
59274;BME280;45044;41.572;24.730;2023-02-20T04:12:13;91527.03;;;4.99;100.00
59274;BME280;45044;41.572;24.730;2023-02-20T04:14:43;91532.84;;;4.79;100.00
59274;BME280;45044;41.572;24.730;2023-02-20T04:17:13;91532.19;;;4.83;100.00
59274;BME280;45044;41.572;24.730;2023-02-20T04:19:41;91519.22;;;4.70;100.00
59274;BME280;45044;41.572;24.730;2023-02-20T04:22:14;91547.31;;;4.64;100.00
59274;BME280;45044;41.572;24.730;2023-02-20T04:27:45;91540.44;;;4.31;100.00
59274;BME280;45044;41.572;24.730;2023-02-20T04:30:12;91537.59;;;4.36;100.00
59274;BME280;45044;41.572;24.730;2023-02-20T04:32:39;91522.66;;;4.33;100.00
59274;BME280;45044;41.572;24.730;2023-02-20T04:35:06;91524.41;;;4.16;100.00
59274;BME280;45044;41.572;24.730;2023-02-20T04:37:33;91521.78;;;4.16;100.00
59274;BME280;45044;41.572;24.730;2023-02-20T04:39:59;91533.75;;;4.05;100.00
59274;BME280;45044;41.572;24.730;2023-02-20T04:42:26;91526.81;;;3.97;100.00
59274;BME280;45044;41.572;24.730;2023-02-20T04:44:53;91523.13;;;4.10;100.00
59274;BME280;45044;41.572;24.730;2023-02-20T04:47:19;91512.03;;;4.26;100.00
59274;BME280;45044;41.572;24.730;2023-02-20T04:49:46;91535.44;;;4.26;100.00
59274;BME280;45044;41.572;24.730;2023-02-20T04:52:13;91538.72;;;4.23;100.00
59274;BME280;45044;41.572;24.730;2023-02-20T04:54:40;91523.09;;;4.23;100.00
59274;BME280;45044;41.572;24.730;2023-02-20T04:57:06;91528.19;;;4.19;100.00
59274;BME280;45044;41.572;24.730;2023-02-20T04:59:33;91523.25;;;4.01;100.00
59274;BME280;45044;41.572;24.730;2023-02-20T05:02:00;91538.94;;;4.05;100.00
59274;BME280;45044;41.572;24.730;2023-02-20T05:04:27;91551.31;;;3.95;100.00
59274;BME280;45044;41.572;24.730;2023-02-20T05:06:56;91535.91;;;4.15;100.00
59274;BME280;45044;41.572;24.730;2023-02-20T05:09:23;91521.78;;;4.29;100.00
59274;BME280;45044;41.572;24.730;2023-02-20T05:11:50;91533.53;;;3.73;100.00
59274;BME280;45044;41.572;24.730;2023-02-20T05:14:17;91517.03;;;4.18;100.00
59274;BME280;45044;41.572;24.730;2023-02-20T05:16:44;91524.13;;;4.59;100.00
59274;BME280;45044;41.572;24.730;2023-02-20T05:19:13;91528.06;;;5.10;100.00
59274;BME280;45044;41.572;24.730;2023-02-20T05:21:44;91521.09;;;5.14;100.00
59274;BME280;45044;41.572;24.730;2023-02-20T05:24:30;91529.81;;;5.06;100.00
59274;BME280;45044;41.572;24.730;2023-02-20T05:26:57;91529.16;;;5.25;100.00
59274;BME280;45044;41.572;24.730;2023-02-20T05:29:24;91525.16;;;5.28;100.00
59274;BME280;45044;41.572;24.730;2023-02-20T05:31:51;91527.16;;;5.19;100.00
59274;BME280;45044;41.572;24.730;2023-02-20T05:34:18;91535.94;;;4.98;100.00
59274;BME280;45044;41.572;24.730;2023-02-20T05:36:48;91541.66;;;4.75;100.00
59274;BME280;45044;41.572;24.730;2023-02-20T05:39:14;91524.41;;;4.99;100.00
59274;BME280;45044;41.572;24.730;2023-02-20T05:41:41;91533.97;;;4.95;100.00
59274;BME280;45044;41.572;24.730;2023-02-20T05:44:08;91554.28;;;5.01;100.00
59274;BME280;45044;41.572;24.730;2023-02-20T05:46:40;91572.72;;;4.96;100.00
59274;BME280;45044;41.572;24.730;2023-02-20T05:49:08;91568.72;;;5.44;92.66
59274;BME280;45044;41.572;24.730;2023-02-20T05:51:35;91571.84;;;5.49;91.23
59274;BME280;45044;41.572;24.730;2023-02-20T05:54:02;91586.53;;;5.54;90.16
59274;BME280;45044;41.572;24.730;2023-02-20T05:56:29;91586.38;;;5.79;83.73
59274;BME280;45044;41.572;24.730;2023-02-20T05:58:55;91592.34;;;5.35;98.89
59274;BME280;45044;41.572;24.730;2023-02-20T06:01:24;91594.91;;;5.19;100.00
59274;BME280;45044;41.572;24.730;2023-02-20T06:03:52;91621.63;;;4.87;100.00
59274;BME280;45044;41.572;24.730;2023-02-20T06:06:19;91615.19;;;4.97;100.00
59274;BME280;45044;41.572;24.730;2023-02-20T06:08:46;91613.19;;;5.06;100.00
59274;BME280;45044;41.572;24.730;2023-02-20T06:11:14;91634.38;;;5.05;100.00
59274;BME280;45044;41.572;24.730;2023-02-20T06:13:44;91619.03;;;5.89;77.42
59274;BME280;45044;41.572;24.730;2023-02-20T06:16:12;91623.84;;;6.03;77.25
59274;BME280;45044;41.572;24.730;2023-02-20T06:18:40;91627.41;;;6.27;72.86
59274;BME280;45044;41.572;24.730;2023-02-20T06:21:08;91633.47;;;6.31;70.88
59274;BME280;45044;41.572;24.730;2023-02-20T06:23:39;91639.88;;;6.34;69.87
59274;BME280;45044;41.572;24.730;2023-02-20T06:26:06;91645.00;;;6.46;68.08
59274;BME280;45044;41.572;24.730;2023-02-20T06:28:33;91646.47;;;6.80;67.83
59274;BME280;45044;41.572;24.730;2023-02-20T06:31:00;91651.41;;;7.01;67.62
59274;BME280;45044;41.572;24.730;2023-02-20T06:33:28;91636.88;;;8.07;65.50
59274;BME280;45044;41.572;24.730;2023-02-20T06:35:55;91651.38;;;9.02;60.67
59274;BME280;45044;41.572;24.730;2023-02-20T06:38:23;91649.66;;;11.22;54.08
59274;BME280;45044;41.572;24.730;2023-02-20T06:40:50;91643.56;;;12.10;50.03
59274;BME280;45044;41.572;24.730;2023-02-20T06:43:17;91648.84;;;12.98;48.32
59274;BME280;45044;41.572;24.730;2023-02-20T06:45:44;91637.97;;;14.00;44.90
59274;BME280;45044;41.572;24.730;2023-02-20T06:48:11;91631.66;;;15.32;41.61
59274;BME280;45044;41.572;24.730;2023-02-20T06:50:40;91630.72;;;13.22;41.22
59274;BME280;45044;41.572;24.730;2023-02-20T06:53:07;91643.59;;;12.84;44.02
59274;BME280;45044;41.572;24.730;2023-02-20T06:55:34;91646.09;;;15.24;42.81
59274;BME280;45044;41.572;24.730;2023-02-20T06:58:01;91640.31;;;15.36;40.70
59274;BME280;45044;41.572;24.730;2023-02-20T07:00:28;91645.56;;;15.01;39.42
59274;BME280;45044;41.572;24.730;2023-02-20T07:02:54;91646.19;;;15.86;39.85
59274;BME280;45044;41.572;24.730;2023-02-20T07:05:21;91644.78;;;16.09;38.55
59274;BME280;45044;41.572;24.730;2023-02-20T07:07:48;91634.47;;;16.15;37.08
59274;BME280;45044;41.572;24.730;2023-02-20T07:10:15;91644.16;;;16.25;39.56
59274;BME280;45044;41.572;24.730;2023-02-20T07:12:41;91649.06;;;14.91;39.57
59274;BME280;45044;41.572;24.730;2023-02-20T07:15:10;91640.13;;;16.45;37.45
59274;BME280;45044;41.572;24.730;2023-02-20T07:17:37;91635.88;;;14.80;39.37
59274;BME280;45044;41.572;24.730;2023-02-20T07:20:05;91638.56;;;15.22;38.88
59274;BME280;45044;41.572;24.730;2023-02-20T07:22:31;91634.38;;;13.50;41.31
59274;BME280;45044;41.572;24.730;2023-02-20T07:24:58;91642.69;;;13.52;42.46
59274;BME280;45044;41.572;24.730;2023-02-20T07:27:25;91631.41;;;13.41;41.17
59274;BME280;45044;41.572;24.730;2023-02-20T07:29:52;91635.78;;;13.88;41.25
59274;BME280;45044;41.572;24.730;2023-02-20T07:32:18;91647.31;;;12.06;42.57
59274;BME280;45044;41.572;24.730;2023-02-20T07:34:48;91649.59;;;12.15;43.34
59274;BME280;45044;41.572;24.730;2023-02-20T07:37:30;91647.34;;;12.97;42.83
59274;BME280;45044;41.572;24.730;2023-02-20T07:39:56;91634.34;;;13.65;41.18
59274;BME280;45044;41.572;24.730;2023-02-20T07:42:23;91632.53;;;14.76;40.00
59274;BME280;45044;41.572;24.730;2023-02-20T07:44:50;91635.03;;;16.78;38.53
59274;BME280;45044;41.572;24.730;2023-02-20T07:47:17;91619.84;;;15.40;37.62
59274;BME280;45044;41.572;24.730;2023-02-20T07:49:44;91630.28;;;16.42;38.51
59274;BME280;45044;41.572;24.730;2023-02-20T07:52:11;91624.53;;;16.23;36.05
59274;BME280;45044;41.572;24.730;2023-02-20T07:54:38;91621.91;;;16.19;37.74
59274;BME280;45044;41.572;24.730;2023-02-20T07:57:04;91632.28;;;16.10;37.80
59274;BME280;45044;41.572;24.730;2023-02-20T07:59:31;91633.75;;;17.55;35.57
59274;BME280;45044;41.572;24.730;2023-02-20T08:01:58;91629.97;;;17.93;34.51
59274;BME280;45044;41.572;24.730;2023-02-20T08:04:24;91635.03;;;19.08;33.72
59274;BME280;45044;41.572;24.730;2023-02-20T08:06:52;91638.69;;;20.29;31.40
59274;BME280;45044;41.572;24.730;2023-02-20T08:09:19;91628.53;;;20.11;30.75
59274;BME280;45044;41.572;24.730;2023-02-20T08:11:46;91635.03;;;19.08;33.02
59274;BME280;45044;41.572;24.730;2023-02-20T08:14:13;91629.41;;;18.55;31.96
59274;BME280;45044;41.572;24.730;2023-02-20T08:16:40;91627.31;;;16.63;32.79
59274;BME280;45044;41.572;24.730;2023-02-20T08:19:07;91629.25;;;17.31;32.01
59274;BME280;45044;41.572;24.730;2023-02-20T08:21:33;91638.03;;;16.56;33.83
59274;BME280;45044;41.572;24.730;2023-02-20T08:24:00;91631.22;;;17.47;32.11
59274;BME280;45044;41.572;24.730;2023-02-20T08:26:27;91642.59;;;19.09;31.67
59274;BME280;45044;41.572;24.730;2023-02-20T08:28:54;91633.59;;;19.03;30.97
59274;BME280;45044;41.572;24.730;2023-02-20T08:31:21;91631.56;;;17.05;31.28
59274;BME280;45044;41.572;24.730;2023-02-20T08:33:57;91644.91;;;16.77;32.05
59274;BME280;45044;41.572;24.730;2023-02-20T08:36:24;91656.00;;;18.22;31.12
59274;BME280;45044;41.572;24.730;2023-02-20T08:38:51;91650.56;;;19.56;30.87
59274;BME280;45044;41.572;24.730;2023-02-20T08:41:18;91662.19;;;18.52;30.47
59274;BME280;45044;41.572;24.730;2023-02-20T08:43:44;91652.88;;;17.87;32.38
59274;BME280;45044;41.572;24.730;2023-02-20T08:46:11;91662.00;;;18.60;30.36
59274;BME280;45044;41.572;24.730;2023-02-20T08:48:39;91657.97;;;16.13;31.69
59274;BME280;45044;41.572;24.730;2023-02-20T08:51:05;91663.00;;;18.49;31.31
59274;BME280;45044;41.572;24.730;2023-02-20T08:53:33;91671.72;;;16.59;31.51
59274;BME280;45044;41.572;24.730;2023-02-20T08:56:01;91657.31;;;18.30;31.23
59274;BME280;45044;41.572;24.730;2023-02-20T08:58:30;91674.69;;;17.98;30.10
59274;BME280;45044;41.572;24.730;2023-02-20T09:00:57;91654.03;;;17.86;29.78
59274;BME280;45044;41.572;24.730;2023-02-20T09:03:24;91659.34;;;18.76;28.87
59274;BME280;45044;41.572;24.730;2023-02-20T09:05:52;91676.56;;;19.22;28.53
59274;BME280;45044;41.572;24.730;2023-02-20T09:08:19;91675.19;;;19.47;28.91
59274;BME280;45044;41.572;24.730;2023-02-20T09:10:46;91673.50;;;19.23;27.02
59274;BME280;45044;41.572;24.730;2023-02-20T09:13:13;91663.56;;;20.65;25.66
59274;BME280;45044;41.572;24.730;2023-02-20T09:15:40;91669.19;;;21.42;26.25
59274;BME280;45044;41.572;24.730;2023-02-20T09:18:10;91673.47;;;20.13;27.33
59274;BME280;45044;41.572;24.730;2023-02-20T09:20:38;91671.22;;;20.11;27.01
59274;BME280;45044;41.572;24.730;2023-02-20T09:23:05;91666.00;;;19.01;26.83
59274;BME280;45044;41.572;24.730;2023-02-20T09:25:32;91659.06;;;18.21;26.92
59274;BME280;45044;41.572;24.730;2023-02-20T09:27:59;91656.81;;;18.36;26.65
59274;BME280;45044;41.572;24.730;2023-02-20T09:30:26;91668.69;;;18.14;26.09
59274;BME280;45044;41.572;24.730;2023-02-20T09:32:53;91669.84;;;18.67;26.39
59274;BME280;45044;41.572;24.730;2023-02-20T09:35:23;91678.97;;;18.99;26.26
59274;BME280;45044;41.572;24.730;2023-02-20T09:37:51;91657.09;;;18.04;24.83
59274;BME280;45044;41.572;24.730;2023-02-20T09:40:26;91673.63;;;17.75;24.63
59274;BME280;45044;41.572;24.730;2023-02-20T09:43:08;91681.81;;;18.92;25.80
59274;BME280;45044;41.572;24.730;2023-02-20T09:45:45;91669.25;;;18.76;26.16
59274;BME280;45044;41.572;24.730;2023-02-20T09:50:54;91681.78;;;17.44;25.54
59274;BME280;45044;41.572;24.730;2023-02-20T09:53:30;91665.84;;;16.96;25.78
59274;BME280;45044;41.572;24.730;2023-02-20T09:56:00;91676.47;;;18.92;26.37
59274;BME280;45044;41.572;24.730;2023-02-20T09:58:53;91693.88;;;19.90;25.21
59274;BME280;45044;41.572;24.730;2023-02-20T10:01:31;91690.06;;;19.61;24.24
59274;BME280;45044;41.572;24.730;2023-02-20T10:04:12;91681.91;;;18.72;24.63
59274;BME280;45044;41.572;24.730;2023-02-20T10:06:43;91680.50;;;19.17;23.54
59274;BME280;45044;41.572;24.730;2023-02-20T10:09:14;91672.94;;;19.45;24.04
59274;BME280;45044;41.572;24.730;2023-02-20T10:20:12;91668.19;;;21.49;22.83
59274;BME280;45044;41.572;24.730;2023-02-20T10:23:32;91659.00;;;21.50;22.42
59274;BME280;45044;41.572;24.730;2023-02-20T10:26:06;91662.75;;;21.75;22.38
59274;BME280;45044;41.572;24.730;2023-02-20T10:28:35;91669.66;;;22.40;21.15
59274;BME280;45044;41.572;24.730;2023-02-20T10:33:49;91662.00;;;21.97;21.87
59274;BME280;45044;41.572;24.730;2023-02-20T10:36:21;91648.97;;;22.08;21.73
59274;BME280;45044;41.572;24.730;2023-02-20T10:41:21;91662.00;;;20.90;24.42
59274;BME280;45044;41.572;24.730;2023-02-20T10:46:56;91671.03;;;20.57;22.51
59274;BME280;45044;41.572;24.730;2023-02-20T10:52:25;91665.75;;;19.29;23.53
59274;BME280;45044;41.572;24.730;2023-02-20T10:58:21;91657.31;;;19.31;23.71
59274;BME280;45044;41.572;24.730;2023-02-20T11:00:57;91664.75;;;18.73;23.59
59274;BME280;45044;41.572;24.730;2023-02-20T11:06:16;91659.81;;;20.23;22.43
59274;BME280;45044;41.572;24.730;2023-02-20T11:08:44;91644.38;;;19.46;24.00
59274;BME280;45044;41.572;24.730;2023-02-20T11:11:20;91650.53;;;20.41;22.64
59274;BME280;45044;41.572;24.730;2023-02-20T11:13:49;91621.72;;;19.08;22.14
59274;BME280;45044;41.572;24.730;2023-02-20T11:16:23;91644.03;;;19.73;23.45
59274;BME280;45044;41.572;24.730;2023-02-20T11:19:14;91648.94;;;20.70;22.54
59274;BME280;45044;41.572;24.730;2023-02-20T11:21:47;91637.78;;;20.98;22.93
59274;BME280;45044;41.572;24.730;2023-02-20T11:26:47;91655.69;;;21.10;22.91
59274;BME280;45044;41.572;24.730;2023-02-20T11:29:18;91647.56;;;20.26;22.89
59274;BME280;45044;41.572;24.730;2023-02-20T11:31:47;91637.38;;;19.65;22.59
59274;BME280;45044;41.572;24.730;2023-02-20T11:34:20;91646.56;;;19.34;24.34
59274;BME280;45044;41.572;24.730;2023-02-20T11:36:51;91648.19;;;20.17;23.87
59274;BME280;45044;41.572;24.730;2023-02-20T11:42:04;91645.63;;;18.28;24.91
59274;BME280;45044;41.572;24.730;2023-02-20T11:44:32;91641.91;;;18.75;24.27
59274;BME280;45044;41.572;24.730;2023-02-20T11:49:45;91642.81;;;19.61;23.64
59274;BME280;45044;41.572;24.730;2023-02-20T11:52:20;91639.47;;;19.87;23.64
59274;BME280;45044;41.572;24.730;2023-02-20T11:55:08;91644.84;;;19.27;24.42
59274;BME280;45044;41.572;24.730;2023-02-20T11:57:42;91645.13;;;19.89;24.97
59274;BME280;45044;41.572;24.730;2023-02-20T12:00:22;91646.28;;;20.44;23.46
59274;BME280;45044;41.572;24.730;2023-02-20T12:05:46;91641.94;;;19.94;24.83
59274;BME280;45044;41.572;24.730;2023-02-20T12:11:02;91645.66;;;20.88;24.48
59274;BME280;45044;41.572;24.730;2023-02-20T12:13:45;91642.66;;;21.12;25.36
59274;BME280;45044;41.572;24.730;2023-02-20T12:33:04;91640.22;;;18.82;24.92
59274;BME280;45044;41.572;24.730;2023-02-20T12:36:04;91647.13;;;19.42;25.08
59274;BME280;45044;41.572;24.730;2023-02-20T12:38:46;91648.63;;;19.73;24.32
59274;BME280;45044;41.572;24.730;2023-02-20T12:43:56;91657.84;;;18.42;25.38
59274;BME280;45044;41.572;24.730;2023-02-20T12:46:53;91655.94;;;17.00;26.25
59274;BME280;45044;41.572;24.730;2023-02-20T12:57:44;91641.66;;;15.52;27.95
59274;BME280;45044;41.572;24.730;2023-02-20T13:05:56;91648.13;;;15.82;27.82
59274;BME280;45044;41.572;24.730;2023-02-20T13:10:59;91635.06;;;14.41;29.42
59274;BME280;45044;41.572;24.730;2023-02-20T13:16:12;91644.81;;;15.01;27.84
59274;BME280;45044;41.572;24.730;2023-02-20T13:18:50;91638.78;;;15.00;27.75
59274;BME280;45044;41.572;24.730;2023-02-20T13:21:27;91647.06;;;15.02;28.86
59274;BME280;45044;41.572;24.730;2023-02-20T13:26:52;91642.81;;;15.12;28.42
59274;BME280;45044;41.572;24.730;2023-02-20T13:31:54;91648.81;;;14.70;30.33
59274;BME280;45044;41.572;24.730;2023-02-20T13:34:28;91656.63;;;14.39;29.75
59274;BME280;45044;41.572;24.730;2023-02-20T13:36:56;91644.38;;;14.60;28.59
59274;BME280;45044;41.572;24.730;2023-02-20T13:47:00;91636.41;;;14.07;29.15
59274;BME280;45044;41.572;24.730;2023-02-20T13:54:56;91611.09;;;14.09;28.38
59274;BME280;45044;41.572;24.730;2023-02-20T13:57:24;91634.09;;;14.16;30.72
59274;BME280;45044;41.572;24.730;2023-02-20T13:59:55;91647.03;;;13.99;30.91
59274;BME280;45044;41.572;24.730;2023-02-20T14:02:22;91639.03;;;14.07;30.44
59274;BME280;45044;41.572;24.730;2023-02-20T14:05:01;91652.09;;;14.36;30.25
59274;BME280;45044;41.572;24.730;2023-02-20T14:07:42;91652.50;;;14.31;30.96
59274;BME280;45044;41.572;24.730;2023-02-20T14:15:33;91655.28;;;14.09;31.40
59274;BME280;45044;41.572;24.730;2023-02-20T14:21:03;91685.78;;;13.05;31.83
59274;BME280;45044;41.572;24.730;2023-02-20T14:23:32;91679.41;;;12.63;31.80
59274;BME280;45044;41.572;24.730;2023-02-20T14:26:03;91677.88;;;12.91;32.15
59274;BME280;45044;41.572;24.730;2023-02-20T14:28:33;91685.03;;;13.09;31.82
59274;BME280;45044;41.572;24.730;2023-02-20T14:31:18;91680.50;;;13.20;30.75
59274;BME280;45044;41.572;24.730;2023-02-20T14:34:10;91677.09;;;13.12;30.92
59274;BME280;45044;41.572;24.730;2023-02-20T14:36:43;91678.19;;;13.37;30.99
59274;BME280;45044;41.572;24.730;2023-02-20T14:41:58;91693.31;;;13.22;31.73
59274;BME280;45044;41.572;24.730;2023-02-20T14:44:26;91696.66;;;13.44;31.49
59274;BME280;45044;41.572;24.730;2023-02-20T14:46:56;91699.38;;;12.78;31.52
59274;BME280;45044;41.572;24.730;2023-02-20T14:49:28;91696.34;;;13.05;31.89
59274;BME280;45044;41.572;24.730;2023-02-20T14:54:36;91703.47;;;13.23;32.03
59274;BME280;45044;41.572;24.730;2023-02-20T14:57:03;91705.00;;;13.24;29.95
59274;BME280;45044;41.572;24.730;2023-02-20T14:59:33;91692.59;;;13.07;30.38
59274;BME280;45044;41.572;24.730;2023-02-20T15:02:20;91687.31;;;13.07;29.24
59274;BME280;45044;41.572;24.730;2023-02-20T15:05:03;91683.91;;;12.99;29.94
59274;BME280;45044;41.572;24.730;2023-02-20T15:07:31;91688.44;;;12.98;30.15
59274;BME280;45044;41.572;24.730;2023-02-20T15:10:00;91691.84;;;12.80;30.39
59274;BME280;45044;41.572;24.730;2023-02-20T15:12:32;91703.16;;;12.63;29.83
59274;BME280;45044;41.572;24.730;2023-02-20T15:15:04;91700.84;;;12.28;30.45
59274;BME280;45044;41.572;24.730;2023-02-20T15:17:33;91711.38;;;12.21;32.02
59274;BME280;45044;41.572;24.730;2023-02-20T15:20:18;91699.94;;;11.80;31.40
59274;BME280;45044;41.572;24.730;2023-02-20T15:22:45;91707.34;;;11.56;32.15
59274;BME280;45044;41.572;24.730;2023-02-20T15:30:30;91701.88;;;10.63;33.70
59274;BME280;45044;41.572;24.730;2023-02-20T15:32:57;91705.31;;;10.68;33.62
59274;BME280;45044;41.572;24.730;2023-02-20T15:35:26;91712.03;;;10.61;33.76
59274;BME280;45044;41.572;24.730;2023-02-20T15:37:55;91717.09;;;10.43;33.51
59274;BME280;45044;41.572;24.730;2023-02-20T15:40:31;91733.09;;;10.30;33.92
59274;BME280;45044;41.572;24.730;2023-02-20T15:42:59;91731.56;;;10.26;34.64